createdAt,value
2017-10-26T00:01:11.035Z,13.10
2017-10-26T00:03:39.223Z,13.10
2017-10-26T00:06:07.415Z,13.10
2017-10-26T00:08:34.833Z,13.10
2017-10-26T00:11:03.030Z,13.10
2017-10-26T00:13:31.203Z,13.10
2017-10-26T00:15:59.391Z,13.10
2017-10-26T00:18:26.806Z,13.10
2017-10-26T00:20:54.697Z,13.20
2017-10-26T00:23:22.867Z,13.70
2017-10-26T00:25:51.076Z,13.80
2017-10-26T00:28:18.536Z,13.70
2017-10-26T00:30:45.980Z,13.70
2017-10-26T00:33:13.403Z,13.60
2017-10-26T00:35:42.414Z,13.30
2017-10-26T00:38:11.539Z,13.20
2017-10-26T00:40:39.287Z,13.30
2017-10-26T00:43:06.708Z,13.20
2017-10-26T00:45:34.150Z,13.20
2017-10-26T00:48:02.343Z,13.20
2017-10-26T00:50:30.526Z,13.20
2017-10-26T00:52:58.826Z,13.20
2017-10-26T00:55:26.252Z,13.20
2017-10-26T00:57:54.459Z,13.20
2017-10-26T01:00:22.079Z,13.20
2017-10-26T01:02:49.488Z,13.10
2017-10-26T01:05:16.915Z,13.20
2017-10-26T01:07:44.367Z,13.20
2017-10-26T01:10:12.979Z,13.10
2017-10-26T01:12:40.402Z,13.10
2017-10-26T01:15:08.590Z,13.20
2017-10-26T01:17:36.011Z,13.20
2017-10-26T01:20:03.427Z,13.10
2017-10-26T01:22:30.860Z,13.10
2017-10-26T01:24:58.310Z,13.10
2017-10-26T01:27:25.723Z,13.20
2017-10-26T01:29:53.139Z,13.20
2017-10-26T01:32:20.757Z,13.10
2017-10-26T01:34:48.387Z,13.10
2017-10-26T01:37:15.822Z,13.10
2017-10-26T01:39:43.234Z,13.00
2017-10-26T01:42:10.671Z,12.90
2017-10-26T01:44:38.942Z,12.90
2017-10-26T01:47:06.372Z,12.90
2017-10-26T01:49:33.795Z,12.90
2017-10-26T01:52:02.061Z,12.90
2017-10-26T01:54:30.266Z,12.90
2017-10-26T01:56:57.663Z,12.80
2017-10-26T01:59:25.080Z,12.90
2017-10-26T02:01:52.530Z,12.90
2017-10-26T02:04:20.003Z,12.90
2017-10-26T02:06:47.418Z,12.80
2017-10-26T02:09:15.611Z,12.80
2017-10-26T02:11:44.832Z,12.80
2017-10-26T02:14:13.188Z,12.80
2017-10-26T02:16:40.607Z,12.80
2017-10-26T02:19:09.576Z,12.80
2017-10-26T02:21:36.998Z,12.80
2017-10-26T02:24:04.432Z,12.80
2017-10-26T02:26:32.629Z,12.70
2017-10-26T02:29:11.830Z,12.70
2017-10-26T02:31:40.034Z,12.70
2017-10-26T02:34:07.447Z,12.70
2017-10-26T02:36:34.950Z,12.60
2017-10-26T02:39:02.385Z,12.60
2017-10-26T02:41:30.586Z,12.60
2017-10-26T02:43:58.058Z,12.60
2017-10-26T02:46:25.471Z,12.60
2017-10-26T02:48:52.919Z,12.60
2017-10-26T02:51:21.096Z,12.60
2017-10-26T02:53:49.274Z,12.60
2017-10-26T02:56:16.808Z,12.60
2017-10-26T02:58:44.219Z,12.60
2017-10-26T03:01:11.639Z,12.60
2017-10-26T03:03:39.055Z,12.70
2017-10-26T03:06:06.501Z,12.70
2017-10-26T03:08:33.907Z,12.70
2017-10-26T03:11:01.363Z,12.70
2017-10-26T03:13:30.277Z,12.60
2017-10-26T03:15:57.700Z,12.60
2017-10-26T03:18:25.886Z,12.60
2017-10-26T03:20:53.381Z,12.60
2017-10-26T03:23:20.816Z,12.70
2017-10-26T03:25:48.244Z,12.70
2017-10-26T03:28:15.650Z,12.70
2017-10-26T03:30:43.119Z,12.70
2017-10-26T03:33:10.536Z,12.70
2017-10-26T03:35:37.955Z,12.70
2017-10-26T03:38:05.380Z,12.70
2017-10-26T03:43:12.572Z,12.70
2017-10-26T03:45:39.986Z,12.60
2017-10-26T03:48:08.181Z,12.60
2017-10-26T03:50:35.616Z,12.60
2017-10-26T03:53:03.821Z,12.60
2017-10-26T03:55:31.348Z,12.60
2017-10-26T03:57:59.533Z,12.60
2017-10-26T04:00:27.017Z,12.60
2017-10-26T04:02:54.457Z,12.60
2017-10-26T04:05:21.891Z,12.60
2017-10-26T04:07:50.086Z,12.60
2017-10-26T04:10:17.534Z,12.50
2017-10-26T04:12:46.336Z,12.60
2017-10-26T04:15:14.218Z,12.60
2017-10-26T04:17:41.663Z,12.60
2017-10-26T04:20:09.067Z,12.60
2017-10-26T04:22:36.495Z,12.50
2017-10-26T04:25:03.918Z,12.50
2017-10-26T04:27:31.334Z,12.50
2017-10-26T04:29:58.767Z,12.50
2017-10-26T04:32:26.187Z,12.50
2017-10-26T04:34:53.595Z,12.50
2017-10-26T04:37:21.024Z,12.60
2017-10-26T04:39:48.461Z,12.60
2017-10-26T04:42:17.011Z,12.60
2017-10-26T04:44:46.091Z,12.60
2017-10-26T04:47:13.515Z,12.60
2017-10-26T04:49:40.941Z,12.60
2017-10-26T04:52:08.350Z,12.60
2017-10-26T04:54:35.858Z,12.60
2017-10-26T04:57:03.335Z,12.60
2017-10-26T04:59:30.727Z,12.50
2017-10-26T05:01:58.187Z,12.50
2017-10-26T05:04:25.612Z,12.50
2017-10-26T05:06:53.223Z,12.50
2017-10-26T05:09:20.645Z,12.50
2017-10-26T05:11:48.059Z,12.60
2017-10-26T05:14:15.492Z,12.50
2017-10-26T05:16:43.669Z,12.50
2017-10-26T05:19:11.103Z,12.50
2017-10-26T05:21:38.515Z,12.50
2017-10-26T05:24:05.957Z,12.50
2017-10-26T05:26:33.355Z,12.50
2017-10-26T05:29:00.784Z,12.50
2017-10-26T05:31:28.194Z,12.50
2017-10-26T05:33:56.381Z,12.50
2017-10-26T05:36:23.798Z,12.50
2017-10-26T05:38:51.978Z,12.50
2017-10-26T05:41:19.405Z,12.50
2017-10-26T05:43:48.080Z,12.50
2017-10-26T05:46:15.491Z,12.50
2017-10-26T05:48:43.671Z,12.50
2017-10-26T05:51:11.085Z,12.40
2017-10-26T05:53:38.516Z,12.50
2017-10-26T05:56:05.959Z,12.40
2017-10-26T05:58:33.380Z,12.40
2017-10-26T06:01:01.563Z,12.50
2017-10-26T06:03:29.760Z,12.50
2017-10-26T06:05:57.170Z,12.50
2017-10-26T06:08:24.595Z,12.50
2017-10-26T06:10:52.085Z,12.50
2017-10-26T06:13:19.510Z,12.50
2017-10-26T06:15:47.873Z,12.40
2017-10-26T06:18:15.298Z,12.50
2017-10-26T06:20:43.470Z,12.50
2017-10-26T06:23:11.677Z,12.50
2017-10-26T06:25:39.084Z,12.50
2017-10-26T06:28:06.500Z,12.60
2017-10-26T06:30:33.911Z,12.60
2017-10-26T06:33:02.100Z,12.60
2017-10-26T06:35:29.518Z,12.60
2017-10-26T06:37:56.935Z,12.60
2017-10-26T06:40:24.353Z,12.60
2017-10-26T06:42:51.770Z,12.60
2017-10-26T06:45:19.194Z,12.60
2017-10-26T06:47:46.615Z,12.60
2017-10-26T06:50:14.802Z,12.70
2017-10-26T06:52:42.275Z,12.70
2017-10-26T06:55:10.484Z,12.70
2017-10-26T06:57:37.903Z,12.70
2017-10-26T07:00:05.319Z,12.80
2017-10-26T07:02:33.539Z,12.80
2017-10-26T07:05:00.953Z,12.80
2017-10-26T07:07:28.376Z,12.80
2017-10-26T07:09:55.834Z,12.90
2017-10-26T07:12:23.266Z,12.90
2017-10-26T07:14:50.678Z,13.00
2017-10-26T07:17:19.791Z,13.00
2017-10-26T07:19:47.202Z,13.00
2017-10-26T07:22:20.605Z,13.10
2017-10-26T07:24:48.022Z,13.20
2017-10-26T07:27:15.433Z,13.20
2017-10-26T07:29:43.613Z,13.20
2017-10-26T07:32:11.829Z,13.30
2017-10-26T07:34:39.219Z,13.30
2017-10-26T07:37:06.649Z,13.20
2017-10-26T07:39:34.058Z,13.20
2017-10-26T07:42:01.482Z,13.30
2017-10-26T07:44:28.904Z,13.40
2017-10-26T07:46:56.359Z,13.40
2017-10-26T07:49:23.778Z,13.50
2017-10-26T07:51:52.003Z,13.70
2017-10-26T07:54:20.538Z,13.70
2017-10-26T07:56:49.714Z,13.70
2017-10-26T07:59:17.126Z,13.70
2017-10-26T08:01:44.540Z,13.70
2017-10-26T08:04:12.728Z,13.80
2017-10-26T08:06:40.911Z,13.80
2017-10-26T08:09:08.330Z,13.80
2017-10-26T08:11:35.767Z,13.90
2017-10-26T08:14:03.179Z,14.10
2017-10-26T08:16:30.648Z,14.20
2017-10-26T08:18:58.083Z,14.20
2017-10-26T08:21:26.280Z,14.30
2017-10-26T08:23:53.702Z,14.30
2017-10-26T08:26:21.906Z,14.30
2017-10-26T08:28:50.255Z,14.30
2017-10-26T08:31:18.449Z,14.30
2017-10-26T08:33:45.860Z,14.30
2017-10-26T08:36:13.278Z,14.30
2017-10-26T08:38:40.732Z,14.30
2017-10-26T08:41:08.152Z,14.40
2017-10-26T08:43:36.331Z,14.40
2017-10-26T08:46:04.553Z,14.50
2017-10-26T08:48:31.988Z,14.50
2017-10-26T08:50:59.420Z,14.50
2017-10-26T08:53:27.623Z,14.50
2017-10-26T08:55:55.056Z,14.50
2017-10-26T08:58:22.496Z,14.50
2017-10-26T09:00:51.642Z,14.50
2017-10-26T09:03:19.058Z,14.50
2017-10-26T09:05:47.281Z,14.60
2017-10-26T09:08:14.682Z,14.60
2017-10-26T09:10:42.866Z,14.60
2017-10-26T09:13:10.290Z,14.60
2017-10-26T09:15:37.712Z,14.70
2017-10-26T09:18:05.136Z,14.60
2017-10-26T09:20:32.600Z,14.70
2017-10-26T09:23:00.041Z,14.70
2017-10-26T09:25:28.230Z,14.90
2017-10-26T09:27:55.652Z,14.80
2017-10-26T09:30:23.083Z,14.90
2017-10-26T09:32:57.144Z,15.00
2017-10-26T09:35:24.575Z,15.00
2017-10-26T09:37:51.972Z,15.10
2017-10-26T09:40:19.407Z,15.20
2017-10-26T09:42:47.576Z,15.30
2017-10-26T09:45:15.775Z,15.30
2017-10-26T09:47:43.216Z,15.30
2017-10-26T09:50:10.634Z,15.30
2017-10-26T09:52:39.567Z,15.50
2017-10-26T09:55:06.992Z,15.40
2017-10-26T09:57:34.408Z,15.50
2017-10-26T10:00:01.853Z,15.40
2017-10-26T10:02:29.251Z,15.30
2017-10-26T10:04:57.488Z,15.20
2017-10-26T10:07:24.958Z,15.20
2017-10-26T10:09:52.395Z,15.20
2017-10-26T10:12:19.879Z,15.20
2017-10-26T10:14:47.321Z,15.10
2017-10-26T10:17:14.766Z,15.10
2017-10-26T10:19:42.157Z,15.20
2017-10-26T10:22:09.575Z,15.30
2017-10-26T10:24:37.079Z,15.30
2017-10-26T10:27:04.503Z,15.30
2017-10-26T10:29:31.909Z,15.40
2017-10-26T10:32:00.223Z,15.50
2017-10-26T10:34:27.615Z,15.50
2017-10-26T10:36:55.051Z,15.50
2017-10-26T10:39:22.917Z,15.50
2017-10-26T10:41:50.402Z,15.50
2017-10-26T10:44:17.806Z,15.40
2017-10-26T10:46:45.231Z,15.40
2017-10-26T10:49:13.426Z,15.30
2017-10-26T10:51:40.834Z,15.30
2017-10-26T10:54:09.769Z,15.20
2017-10-26T10:56:37.216Z,15.20
2017-10-26T10:59:11.131Z,15.20
2017-10-26T11:01:38.551Z,15.20
2017-10-26T11:04:05.971Z,15.30
2017-10-26T11:06:33.390Z,15.40
2017-10-26T11:09:01.577Z,15.60
2017-10-26T11:11:28.999Z,15.60
2017-10-26T11:13:56.429Z,15.70
2017-10-26T11:16:23.851Z,15.70
2017-10-26T11:18:51.261Z,15.60
2017-10-26T11:21:19.443Z,15.60
2017-10-26T11:23:52.578Z,15.70
2017-10-26T11:26:20.040Z,15.70
2017-10-26T11:28:47.502Z,15.80
2017-10-26T11:31:14.930Z,15.90
2017-10-26T11:33:43.100Z,16.00
2017-10-26T11:36:10.525Z,15.90
2017-10-26T11:38:37.924Z,16.10
2017-10-26T11:41:05.349Z,16.50
2017-10-26T11:43:33.533Z,16.80
2017-10-26T11:46:01.712Z,16.80
2017-10-26T11:48:29.122Z,16.80
2017-10-26T11:50:56.553Z,16.80
2017-10-26T11:53:25.096Z,16.70
2017-10-26T11:55:54.203Z,17.00
2017-10-26T11:58:21.691Z,17.00
2017-10-26T12:00:49.139Z,17.40
2017-10-26T12:03:16.596Z,17.30
2017-10-26T12:05:43.991Z,17.10
2017-10-26T12:08:12.942Z,16.60
2017-10-26T12:10:40.353Z,16.60
2017-10-26T12:13:07.847Z,16.50
2017-10-26T12:15:35.263Z,16.30
2017-10-26T12:18:03.447Z,16.10
2017-10-26T12:20:31.652Z,16.00
2017-10-26T12:22:59.067Z,16.00
2017-10-26T12:25:27.254Z,15.90
2017-10-26T12:27:55.870Z,15.90
2017-10-26T12:30:23.262Z,15.80
2017-10-26T12:32:50.688Z,15.90
2017-10-26T12:35:18.401Z,15.90
2017-10-26T12:37:46.585Z,16.00
2017-10-26T12:40:14.767Z,16.10
2017-10-26T12:42:42.216Z,16.10
2017-10-26T12:45:10.406Z,16.60
2017-10-26T12:47:37.821Z,16.60
2017-10-26T12:50:05.247Z,17.30
2017-10-26T12:52:32.702Z,17.80
2017-10-26T12:55:00.140Z,18.60
2017-10-26T12:57:27.564Z,19.20
2017-10-26T12:59:56.496Z,19.50
2017-10-26T13:02:23.961Z,19.40
2017-10-26T13:04:51.398Z,19.30
2017-10-26T13:07:18.824Z,18.80
2017-10-26T13:09:47.048Z,17.70
2017-10-26T13:12:14.491Z,17.70
2017-10-26T13:14:41.917Z,17.40
2017-10-26T13:17:10.095Z,17.30
2017-10-26T13:19:38.270Z,17.60
2017-10-26T13:22:05.707Z,17.60
2017-10-26T13:24:33.907Z,17.50
2017-10-26T13:27:01.310Z,17.50
2017-10-26T13:29:28.726Z,17.40
2017-10-26T13:31:57.114Z,16.80
2017-10-26T13:34:24.541Z,16.80
2017-10-26T13:36:51.969Z,16.70
2017-10-26T13:39:20.178Z,16.60
2017-10-26T13:41:47.625Z,16.50
2017-10-26T13:44:15.821Z,16.50
2017-10-26T13:46:43.255Z,16.50
2017-10-26T13:49:11.431Z,16.60
2017-10-26T13:51:39.614Z,16.90
2017-10-26T13:54:07.048Z,16.80
2017-10-26T13:56:35.244Z,18.20
2017-10-26T13:59:02.667Z,18.20
2017-10-26T14:01:30.091Z,19.30
2017-10-26T14:03:57.532Z,19.40
2017-10-26T14:06:24.969Z,19.10
2017-10-26T14:08:52.387Z,18.50
2017-10-26T14:11:19.799Z,17.80
2017-10-26T14:13:47.248Z,17.50
2017-10-26T14:16:14.686Z,17.40
2017-10-26T14:18:42.856Z,17.60
2017-10-26T14:21:10.327Z,17.60
2017-10-26T14:23:37.746Z,18.10
2017-10-26T14:26:05.255Z,18.70
2017-10-26T14:28:32.666Z,19.00
2017-10-26T14:31:00.856Z,18.30
2017-10-26T14:33:29.028Z,17.70
2017-10-26T14:35:58.147Z,17.50
2017-10-26T14:38:25.574Z,17.50
2017-10-26T14:40:53.759Z,17.00
2017-10-26T14:43:21.187Z,16.90
2017-10-26T14:45:49.351Z,16.80
2017-10-26T14:48:17.611Z,16.50
2017-10-26T14:50:45.037Z,16.50
2017-10-26T14:53:12.648Z,16.30
2017-10-26T14:55:40.101Z,16.20
2017-10-26T14:58:07.634Z,16.10
2017-10-26T15:00:35.030Z,16.00
2017-10-26T15:03:03.861Z,15.90
2017-10-26T15:05:31.246Z,15.90
2017-10-26T15:07:59.012Z,15.90
2017-10-26T15:10:26.442Z,15.90
2017-10-26T15:12:54.549Z,15.80
2017-10-26T15:15:22.057Z,15.70
2017-10-26T15:17:49.491Z,15.70
2017-10-26T15:20:18.220Z,15.60
2017-10-26T15:22:45.651Z,15.60
2017-10-26T15:25:14.591Z,15.50
2017-10-26T15:27:42.067Z,15.50
2017-10-26T15:30:09.584Z,15.50
2017-10-26T15:32:37.051Z,15.50
2017-10-26T15:35:04.468Z,15.50
2017-10-26T15:37:31.886Z,15.40
2017-10-26T15:39:59.307Z,15.40
2017-10-26T15:42:26.780Z,15.40
2017-10-26T15:44:54.270Z,15.40
2017-10-26T15:47:22.570Z,15.40
2017-10-26T15:49:50.008Z,15.30
2017-10-26T15:52:18.728Z,15.40
2017-10-26T15:54:46.291Z,15.40
2017-10-26T15:57:13.684Z,15.30
2017-10-26T15:59:41.115Z,15.30
2017-10-26T16:02:08.551Z,15.30
2017-10-26T16:04:35.971Z,15.20
2017-10-26T16:07:05.788Z,15.20
2017-10-26T16:09:33.200Z,15.20
2017-10-26T16:12:00.648Z,15.20
2017-10-26T16:14:28.055Z,15.10
2017-10-26T16:16:56.306Z,15.10
2017-10-26T16:19:24.519Z,15.10
2017-10-26T16:21:51.923Z,15.10
2017-10-26T16:24:20.884Z,15.10
2017-10-26T16:26:48.312Z,15.10
2017-10-26T16:29:17.199Z,15.00
2017-10-26T16:31:45.391Z,15.00
2017-10-26T16:34:13.323Z,15.00
2017-10-26T16:36:41.563Z,15.00
2017-10-26T16:39:09.754Z,15.00
2017-10-26T16:41:37.270Z,15.00
2017-10-26T16:44:04.781Z,14.90
2017-10-26T16:46:32.284Z,14.90
2017-10-26T16:49:00.157Z,14.90
2017-10-26T16:51:27.574Z,14.90
2017-10-26T16:53:55.776Z,14.90
2017-10-26T16:56:23.654Z,14.80
2017-10-26T16:58:51.115Z,14.80
2017-10-26T17:01:18.580Z,14.80
2017-10-26T17:03:46.007Z,14.80
2017-10-26T17:06:13.433Z,14.80
2017-10-26T17:08:40.852Z,14.70
2017-10-26T17:11:08.274Z,14.80
2017-10-26T17:13:35.728Z,14.70
2017-10-26T17:16:03.895Z,14.80
2017-10-26T17:18:31.321Z,14.70
2017-10-26T17:20:58.731Z,14.70
2017-10-26T17:23:26.150Z,14.70
2017-10-26T17:25:54.329Z,14.70
2017-10-26T17:28:22.518Z,14.70
2017-10-26T17:30:49.931Z,14.60
2017-10-26T17:33:18.142Z,14.60
2017-10-26T17:35:45.587Z,14.60
2017-10-26T17:38:13.803Z,14.60
2017-10-26T17:40:41.244Z,14.60
2017-10-26T17:43:08.720Z,14.60
2017-10-26T17:45:36.154Z,14.60
2017-10-26T17:48:03.635Z,14.60
2017-10-26T17:50:31.058Z,14.50
2017-10-26T17:52:59.244Z,14.50
2017-10-26T17:55:26.826Z,14.50
2017-10-26T17:57:54.251Z,14.50
2017-10-26T18:00:21.702Z,14.50
2017-10-26T18:02:49.119Z,14.50
2017-10-26T18:05:16.556Z,14.50
2017-10-26T18:07:44.184Z,14.50
2017-10-26T18:10:11.648Z,14.50
2017-10-26T18:12:39.079Z,14.50
2017-10-26T18:15:06.560Z,14.50
2017-10-26T18:17:33.975Z,14.50
2017-10-26T18:20:02.183Z,14.50
2017-10-26T18:22:29.608Z,14.50
2017-10-26T18:24:57.111Z,14.50
2017-10-26T18:27:24.671Z,14.50
2017-10-26T18:29:52.092Z,14.50
2017-10-26T18:32:20.269Z,14.40
2017-10-26T18:34:47.763Z,14.40
2017-10-26T18:37:15.207Z,14.40
2017-10-26T18:39:42.672Z,14.40
2017-10-26T18:42:10.132Z,14.40
2017-10-26T18:44:37.559Z,14.30
2017-10-26T18:47:05.008Z,14.30
2017-10-26T18:49:32.435Z,14.30
2017-10-26T18:51:59.859Z,14.30
2017-10-26T18:54:27.276Z,14.30
2017-10-26T18:56:55.554Z,14.20
2017-10-26T18:59:23.710Z,14.20
2017-10-26T19:01:51.902Z,14.20
2017-10-26T19:04:19.320Z,14.20
2017-10-26T19:06:46.842Z,14.20
2017-10-26T19:09:14.272Z,14.20
2017-10-26T19:11:41.691Z,14.20
2017-10-26T19:14:09.117Z,14.20
2017-10-26T19:16:36.562Z,14.20
2017-10-26T19:19:04.730Z,14.20
2017-10-26T19:21:33.094Z,14.20
2017-10-26T19:24:02.191Z,14.20
2017-10-26T19:26:29.608Z,14.20
2017-10-26T19:28:57.055Z,14.20
2017-10-26T19:31:24.480Z,14.20
2017-10-26T19:33:51.916Z,14.20
2017-10-26T19:36:20.085Z,14.10
2017-10-26T19:38:47.515Z,14.10
2017-10-26T19:41:14.932Z,14.10
2017-10-26T19:43:42.415Z,14.10
2017-10-26T19:46:09.936Z,14.10
2017-10-26T19:48:37.432Z,14.10
2017-10-26T19:51:04.880Z,14.10
2017-10-26T19:53:32.950Z,14.10
2017-10-26T19:56:00.391Z,14.10
2017-10-26T19:58:27.875Z,14.00
2017-10-26T20:00:55.336Z,14.00
2017-10-26T20:03:22.825Z,14.00
2017-10-26T20:05:51.056Z,14.00
2017-10-26T20:08:18.526Z,13.90
2017-10-26T20:10:45.994Z,13.90
2017-10-26T20:13:14.252Z,13.90
2017-10-26T20:15:41.714Z,13.90
2017-10-26T20:18:09.175Z,13.90
2017-10-26T20:20:37.404Z,13.90
2017-10-26T20:23:04.902Z,13.90
2017-10-26T20:25:34.037Z,13.90
2017-10-26T20:28:01.524Z,13.80
2017-10-26T20:30:29.007Z,13.80
2017-10-26T20:32:56.476Z,13.80
2017-10-26T20:35:24.664Z,13.70
2017-10-26T20:37:52.943Z,13.70
2017-10-26T20:40:20.398Z,13.70
2017-10-26T20:42:48.554Z,13.60
2017-10-26T20:45:16.022Z,13.60
2017-10-26T20:47:43.447Z,13.60
2017-10-26T20:53:22.988Z,13.50
2017-10-26T20:55:56.015Z,13.50
2017-10-26T20:58:29.049Z,13.50
2017-10-26T21:01:02.867Z,13.40
2017-10-26T21:03:35.897Z,13.40
2017-10-26T21:06:10.084Z,13.40
2017-10-26T21:08:43.307Z,13.40
2017-10-26T21:11:17.476Z,13.30
2017-10-26T21:13:50.554Z,13.30
2017-10-26T21:16:18.037Z,13.30
2017-10-26T21:18:45.434Z,13.30
2017-10-26T21:21:12.896Z,13.30
2017-10-26T21:23:40.354Z,13.30
2017-10-26T21:26:08.576Z,13.30
2017-10-26T21:28:36.063Z,13.30
2017-10-26T21:31:05.232Z,13.30
2017-10-26T21:33:38.421Z,13.30
2017-10-26T21:36:05.940Z,13.30
2017-10-26T21:38:35.082Z,13.30
2017-10-26T21:41:02.554Z,13.30
2017-10-26T21:43:30.750Z,13.30
2017-10-26T21:45:59.035Z,13.20
2017-10-26T21:48:27.241Z,13.20
2017-10-26T21:50:54.758Z,13.20
2017-10-26T21:53:22.951Z,13.20
2017-10-26T21:55:50.394Z,13.20
2017-10-26T21:58:18.035Z,13.20
2017-10-26T22:00:45.523Z,13.20
2017-10-26T22:03:12.975Z,13.20
2017-10-26T22:05:41.034Z,13.20
2017-10-26T22:08:09.271Z,13.10
2017-10-26T22:10:36.683Z,13.10
2017-10-26T22:13:05.062Z,13.10
2017-10-26T22:15:33.307Z,13.00
2017-10-26T22:18:00.788Z,13.00
2017-10-26T22:20:28.951Z,13.00
2017-10-26T22:22:56.411Z,13.00
2017-10-26T22:25:23.880Z,13.00
2017-10-26T22:27:51.300Z,13.00
2017-10-26T22:30:18.771Z,12.90
2017-10-26T22:32:47.728Z,12.90
2017-10-26T22:35:15.209Z,12.80
2017-10-26T22:37:42.676Z,12.90
2017-10-26T22:40:10.171Z,12.90
2017-10-26T22:42:37.647Z,12.90
2017-10-26T22:45:05.995Z,12.80
2017-10-26T22:47:33.434Z,12.90
2017-10-26T22:50:00.857Z,12.80
2017-10-26T22:52:28.275Z,12.80
2017-10-26T22:54:55.759Z,12.80
2017-10-26T22:57:23.192Z,12.80
2017-10-26T22:59:50.623Z,12.80
2017-10-26T23:02:18.030Z,12.80
2017-10-26T23:04:45.459Z,12.80
2017-10-26T23:07:12.867Z,12.80
2017-10-26T23:09:41.039Z,12.70
2017-10-26T23:12:09.235Z,12.70
2017-10-26T23:14:36.643Z,12.70
2017-10-26T23:17:04.090Z,12.70
2017-10-26T23:19:31.517Z,12.60
2017-10-26T23:21:58.956Z,12.70
2017-10-26T23:24:27.135Z,12.60
2017-10-26T23:26:54.544Z,12.60
2017-10-26T23:29:21.950Z,12.60
2017-10-26T23:31:49.504Z,12.60
2017-10-26T23:34:17.694Z,12.60
2017-10-26T23:36:45.140Z,12.50
2017-10-26T23:39:12.566Z,12.50
2017-10-26T23:41:39.973Z,12.50
2017-10-26T23:44:07.386Z,12.50
2017-10-26T23:46:35.574Z,12.50
2017-10-26T23:49:03.001Z,12.50
2017-10-26T23:51:30.418Z,12.50
2017-10-26T23:53:57.831Z,12.50
2017-10-26T23:56:25.259Z,12.50
2017-10-26T23:58:52.662Z,12.50
